sensor_id;sensor_type;location;lat;lon;timestamp;P1;durP1;ratioP1;P2;durP2;ratioP2
7957;SDS011;4024;52.172;5.378;2023-01-19T00:01:35;4.67;;;3.73;;
7957;SDS011;4024;52.172;5.378;2023-01-19T00:04:03;3.70;;;3.30;;
7957;SDS011;4024;52.172;5.378;2023-01-19T00:06:29;3.40;;;3.10;;
7957;SDS011;4024;52.172;5.378;2023-01-19T00:08:55;3.43;;;3.00;;
7957;SDS011;4024;52.172;5.378;2023-01-19T00:11:21;4.17;;;3.00;;
7957;SDS011;4024;52.172;5.378;2023-01-19T00:13:47;3.07;;;2.77;;
7957;SDS011;4024;52.172;5.378;2023-01-19T00:16:16;4.30;;;2.80;;
7957;SDS011;4024;52.172;5.378;2023-01-19T00:18:45;4.90;;;2.60;;
7957;SDS011;4024;52.172;5.378;2023-01-19T00:21:12;2.53;;;1.83;;
7957;SDS011;4024;52.172;5.378;2023-01-19T00:23:42;3.53;;;1.90;;
7957;SDS011;4024;52.172;5.378;2023-01-19T00:26:11;2.97;;;1.50;;
7957;SDS011;4024;52.172;5.378;2023-01-19T00:28:37;1.40;;;1.27;;
7957;SDS011;4024;52.172;5.378;2023-01-19T00:31:03;1.53;;;1.30;;
7957;SDS011;4024;52.172;5.378;2023-01-19T00:33:29;1.77;;;1.40;;
7957;SDS011;4024;52.172;5.378;2023-01-19T00:35:54;3.67;;;1.60;;
7957;SDS011;4024;52.172;5.378;2023-01-19T00:38:20;1.50;;;1.40;;
7957;SDS011;4024;52.172;5.378;2023-01-19T00:40:46;3.67;;;1.57;;
7957;SDS011;4024;52.172;5.378;2023-01-19T00:43:12;3.80;;;1.90;;
7957;SDS011;4024;52.172;5.378;2023-01-19T00:45:37;3.97;;;1.90;;
7957;SDS011;4024;52.172;5.378;2023-01-19T00:48:03;3.17;;;2.13;;
7957;SDS011;4024;52.172;5.378;2023-01-19T00:50:30;3.43;;;2.03;;
7957;SDS011;4024;52.172;5.378;2023-01-19T00:52:56;3.43;;;2.10;;
7957;SDS011;4024;52.172;5.378;2023-01-19T00:55:26;3.50;;;2.50;;
7957;SDS011;4024;52.172;5.378;2023-01-19T00:57:55;5.83;;;2.67;;
7957;SDS011;4024;52.172;5.378;2023-01-19T01:00:21;5.87;;;3.43;;
7957;SDS011;4024;52.172;5.378;2023-01-19T01:02:48;3.77;;;3.23;;
7957;SDS011;4024;52.172;5.378;2023-01-19T01:05:15;6.90;;;4.13;;
7957;SDS011;4024;52.172;5.378;2023-01-19T01:07:42;6.67;;;4.90;;
7957;SDS011;4024;52.172;5.378;2023-01-19T01:10:14;6.77;;;5.00;;
7957;SDS011;4024;52.172;5.378;2023-01-19T01:12:41;8.57;;;5.67;;
7957;SDS011;4024;52.172;5.378;2023-01-19T01:15:07;8.63;;;6.67;;
7957;SDS011;4024;52.172;5.378;2023-01-19T01:17:35;8.43;;;6.00;;
7957;SDS011;4024;52.172;5.378;2023-01-19T01:20:01;11.33;;;6.67;;
7957;SDS011;4024;52.172;5.378;2023-01-19T01:22:28;8.93;;;6.87;;
7957;SDS011;4024;52.172;5.378;2023-01-19T01:24:54;8.10;;;6.20;;
7957;SDS011;4024;52.172;5.378;2023-01-19T01:27:20;8.57;;;6.53;;
7957;SDS011;4024;52.172;5.378;2023-01-19T01:29:46;8.57;;;6.20;;
7957;SDS011;4024;52.172;5.378;2023-01-19T01:32:12;9.67;;;6.30;;
7957;SDS011;4024;52.172;5.378;2023-01-19T01:34:39;9.03;;;5.50;;
7957;SDS011;4024;52.172;5.378;2023-01-19T01:37:05;5.70;;;4.90;;
7957;SDS011;4024;52.172;5.378;2023-01-19T01:39:33;5.67;;;4.47;;
7957;SDS011;4024;52.172;5.378;2023-01-19T01:41:59;5.60;;;3.40;;
7957;SDS011;4024;52.172;5.378;2023-01-19T01:47:17;3.73;;;2.10;;
7957;SDS011;4024;52.172;5.378;2023-01-19T01:49:49;3.07;;;2.20;;
7957;SDS011;4024;52.172;5.378;2023-01-19T01:52:17;2.73;;;2.00;;
7957;SDS011;4024;52.172;5.378;2023-01-19T01:54:44;2.33;;;1.80;;
7957;SDS011;4024;52.172;5.378;2023-01-19T01:57:10;2.40;;;2.03;;
7957;SDS011;4024;52.172;5.378;2023-01-19T01:59:40;4.20;;;1.60;;
7957;SDS011;4024;52.172;5.378;2023-01-19T02:02:18;3.43;;;1.80;;
7957;SDS011;4024;52.172;5.378;2023-01-19T02:05:05;2.50;;;1.47;;
7957;SDS011;4024;52.172;5.378;2023-01-19T02:10:40;3.80;;;1.70;;
7957;SDS011;4024;52.172;5.378;2023-01-19T02:13:29;3.20;;;1.60;;
7957;SDS011;4024;52.172;5.378;2023-01-19T02:15:57;2.37;;;1.40;;
7957;SDS011;4024;52.172;5.378;2023-01-19T02:18:28;1.57;;;1.37;;
7957;SDS011;4024;52.172;5.378;2023-01-19T02:20:58;2.70;;;1.40;;
7957;SDS011;4024;52.172;5.378;2023-01-19T02:23:55;4.67;;;1.67;;
7957;SDS011;4024;52.172;5.378;2023-01-19T02:26:56;3.47;;;1.77;;
7957;SDS011;4024;52.172;5.378;2023-01-19T02:29:16;5.47;;;1.67;;
7957;SDS011;4024;52.172;5.378;2023-01-19T02:31:43;5.00;;;1.83;;
7957;SDS011;4024;52.172;5.378;2023-01-19T02:34:10;3.53;;;1.70;;
7957;SDS011;4024;52.172;5.378;2023-01-19T02:37:02;3.37;;;1.77;;
7957;SDS011;4024;52.172;5.378;2023-01-19T02:39:35;5.43;;;1.80;;
7957;SDS011;4024;52.172;5.378;2023-01-19T02:42:07;9.83;;;2.23;;
7957;SDS011;4024;52.172;5.378;2023-01-19T02:44:38;9.20;;;2.30;;
7957;SDS011;4024;52.172;5.378;2023-01-19T02:47:04;7.80;;;1.97;;
7957;SDS011;4024;52.172;5.378;2023-01-19T02:49:30;6.00;;;1.83;;
7957;SDS011;4024;52.172;5.378;2023-01-19T02:51:56;5.77;;;1.90;;
7957;SDS011;4024;52.172;5.378;2023-01-19T02:56:56;6.07;;;1.90;;
7957;SDS011;4024;52.172;5.378;2023-01-19T03:05:25;4.83;;;1.90;;
7957;SDS011;4024;52.172;5.378;2023-01-19T03:08:00;4.23;;;1.87;;
7957;SDS011;4024;52.172;5.378;2023-01-19T03:13:33;4.53;;;1.53;;
7957;SDS011;4024;52.172;5.378;2023-01-19T03:18:38;5.27;;;1.70;;
7957;SDS011;4024;52.172;5.378;2023-01-19T03:21:07;5.80;;;1.67;;
7957;SDS011;4024;52.172;5.378;2023-01-19T03:23:35;3.37;;;1.30;;
7957;SDS011;4024;52.172;5.378;2023-01-19T03:26:03;3.33;;;1.80;;
7957;SDS011;4024;52.172;5.378;2023-01-19T03:28:33;2.10;;;1.10;;
7957;SDS011;4024;52.172;5.378;2023-01-19T03:31:03;5.50;;;1.80;;
7957;SDS011;4024;52.172;5.378;2023-01-19T03:33:35;4.77;;;1.60;;
7957;SDS011;4024;52.172;5.378;2023-01-19T03:36:11;6.60;;;1.73;;
7957;SDS011;4024;52.172;5.378;2023-01-19T03:38:40;7.27;;;2.03;;
7957;SDS011;4024;52.172;5.378;2023-01-19T03:41:10;5.97;;;1.93;;
7957;SDS011;4024;52.172;5.378;2023-01-19T03:43:39;5.23;;;1.90;;
7957;SDS011;4024;52.172;5.378;2023-01-19T03:46:06;5.03;;;1.63;;
7957;SDS011;4024;52.172;5.378;2023-01-19T03:48:34;3.60;;;1.40;;
7957;SDS011;4024;52.172;5.378;2023-01-19T03:51:04;2.03;;;1.30;;
7957;SDS011;4024;52.172;5.378;2023-01-19T03:53:33;5.17;;;1.60;;
7957;SDS011;4024;52.172;5.378;2023-01-19T03:55:59;2.77;;;1.53;;
7957;SDS011;4024;52.172;5.378;2023-01-19T03:58:25;3.93;;;1.47;;
7957;SDS011;4024;52.172;5.378;2023-01-19T04:00:50;3.63;;;1.70;;
7957;SDS011;4024;52.172;5.378;2023-01-19T04:03:17;6.07;;;1.90;;
7957;SDS011;4024;52.172;5.378;2023-01-19T04:05:43;5.63;;;1.80;;
7957;SDS011;4024;52.172;5.378;2023-01-19T04:08:09;3.07;;;1.90;;
7957;SDS011;4024;52.172;5.378;2023-01-19T04:10:36;5.60;;;1.63;;
7957;SDS011;4024;52.172;5.378;2023-01-19T04:13:03;5.80;;;2.43;;
7957;SDS011;4024;52.172;5.378;2023-01-19T04:15:30;5.17;;;1.80;;
7957;SDS011;4024;52.172;5.378;2023-01-19T04:17:56;6.27;;;2.17;;
7957;SDS011;4024;52.172;5.378;2023-01-19T04:20:23;6.97;;;2.20;;
7957;SDS011;4024;52.172;5.378;2023-01-19T04:22:50;5.97;;;1.90;;
7957;SDS011;4024;52.172;5.378;2023-01-19T04:25:16;3.07;;;1.60;;
7957;SDS011;4024;52.172;5.378;2023-01-19T04:27:42;5.97;;;2.23;;
7957;SDS011;4024;52.172;5.378;2023-01-19T04:30:08;7.57;;;1.57;;
7957;SDS011;4024;52.172;5.378;2023-01-19T04:32:34;3.03;;;1.40;;
7957;SDS011;4024;52.172;5.378;2023-01-19T04:35:00;4.53;;;1.50;;
7957;SDS011;4024;52.172;5.378;2023-01-19T04:37:26;3.10;;;1.60;;
7957;SDS011;4024;52.172;5.378;2023-01-19T04:39:52;4.53;;;1.43;;
7957;SDS011;4024;52.172;5.378;2023-01-19T04:42:18;5.27;;;1.77;;
7957;SDS011;4024;52.172;5.378;2023-01-19T04:44:44;4.93;;;1.77;;
7957;SDS011;4024;52.172;5.378;2023-01-19T04:47:09;5.77;;;1.80;;
7957;SDS011;4024;52.172;5.378;2023-01-19T04:49:36;3.27;;;1.70;;
7957;SDS011;4024;52.172;5.378;2023-01-19T04:52:03;4.87;;;1.73;;
7957;SDS011;4024;52.172;5.378;2023-01-19T04:54:30;3.53;;;1.70;;
7957;SDS011;4024;52.172;5.378;2023-01-19T04:56:56;4.80;;;1.63;;
7957;SDS011;4024;52.172;5.378;2023-01-19T04:59:22;5.73;;;1.70;;
7957;SDS011;4024;52.172;5.378;2023-01-19T05:01:47;6.57;;;1.57;;
7957;SDS011;4024;52.172;5.378;2023-01-19T05:04:13;5.40;;;1.90;;
7957;SDS011;4024;52.172;5.378;2023-01-19T05:06:39;6.27;;;1.90;;
7957;SDS011;4024;52.172;5.378;2023-01-19T05:09:05;3.30;;;1.80;;
7957;SDS011;4024;52.172;5.378;2023-01-19T05:11:32;5.97;;;2.00;;
7957;SDS011;4024;52.172;5.378;2023-01-19T05:14:00;8.33;;;2.30;;
7957;SDS011;4024;52.172;5.378;2023-01-19T05:16:26;5.57;;;1.83;;
7957;SDS011;4024;52.172;5.378;2023-01-19T05:18:51;8.07;;;2.43;;
7957;SDS011;4024;52.172;5.378;2023-01-19T05:21:17;11.93;;;2.60;;
7957;SDS011;4024;52.172;5.378;2023-01-19T05:23:44;8.57;;;2.37;;
7957;SDS011;4024;52.172;5.378;2023-01-19T05:26:10;8.47;;;2.13;;
7957;SDS011;4024;52.172;5.378;2023-01-19T05:28:35;12.10;;;2.50;;
7957;SDS011;4024;52.172;5.378;2023-01-19T05:31:02;9.77;;;2.87;;
7957;SDS011;4024;52.172;5.378;2023-01-19T05:33:28;7.40;;;2.60;;
7957;SDS011;4024;52.172;5.378;2023-01-19T05:35:53;11.00;;;2.50;;
7957;SDS011;4024;52.172;5.378;2023-01-19T05:38:19;9.87;;;2.67;;
7957;SDS011;4024;52.172;5.378;2023-01-19T05:40:46;9.53;;;2.50;;
7957;SDS011;4024;52.172;5.378;2023-01-19T05:43:12;11.60;;;2.53;;
7957;SDS011;4024;52.172;5.378;2023-01-19T05:45:38;15.30;;;2.90;;
7957;SDS011;4024;52.172;5.378;2023-01-19T05:48:05;7.63;;;2.20;;
7957;SDS011;4024;52.172;5.378;2023-01-19T05:50:31;11.43;;;3.10;;
7957;SDS011;4024;52.172;5.378;2023-01-19T05:52:58;10.50;;;3.03;;
7957;SDS011;4024;52.172;5.378;2023-01-19T05:55:24;9.43;;;2.60;;
7957;SDS011;4024;52.172;5.378;2023-01-19T05:57:50;9.00;;;2.60;;
7957;SDS011;4024;52.172;5.378;2023-01-19T06:00:16;11.43;;;2.83;;
7957;SDS011;4024;52.172;5.378;2023-01-19T06:02:42;12.13;;;2.63;;
7957;SDS011;4024;52.172;5.378;2023-01-19T06:05:08;9.93;;;2.60;;
7957;SDS011;4024;52.172;5.378;2023-01-19T06:07:34;15.57;;;3.33;;
7957;SDS011;4024;52.172;5.378;2023-01-19T06:10:00;14.30;;;3.27;;
7957;SDS011;4024;52.172;5.378;2023-01-19T06:12:25;6.17;;;2.33;;
7957;SDS011;4024;52.172;5.378;2023-01-19T06:14:51;11.73;;;2.73;;
7957;SDS011;4024;52.172;5.378;2023-01-19T06:17:17;5.70;;;2.30;;
7957;SDS011;4024;52.172;5.378;2023-01-19T06:19:43;12.90;;;2.60;;
7957;SDS011;4024;52.172;5.378;2023-01-19T06:22:08;10.90;;;2.93;;
7957;SDS011;4024;52.172;5.378;2023-01-19T06:24:34;10.50;;;2.33;;
7957;SDS011;4024;52.172;5.378;2023-01-19T06:27:00;11.93;;;2.70;;
7957;SDS011;4024;52.172;5.378;2023-01-19T06:29:26;9.83;;;2.70;;
7957;SDS011;4024;52.172;5.378;2023-01-19T06:31:52;9.63;;;2.50;;
7957;SDS011;4024;52.172;5.378;2023-01-19T06:34:18;4.67;;;2.40;;
7957;SDS011;4024;52.172;5.378;2023-01-19T06:36:44;7.90;;;2.30;;
7957;SDS011;4024;52.172;5.378;2023-01-19T06:39:10;7.60;;;2.50;;
7957;SDS011;4024;52.172;5.378;2023-01-19T06:41:36;13.30;;;2.57;;
7957;SDS011;4024;52.172;5.378;2023-01-19T06:44:02;13.03;;;2.70;;
7957;SDS011;4024;52.172;5.378;2023-01-19T06:46:29;8.20;;;2.17;;
7957;SDS011;4024;52.172;5.378;2023-01-19T06:48:55;11.90;;;2.53;;
7957;SDS011;4024;52.172;5.378;2023-01-19T06:51:21;9.63;;;3.10;;
7957;SDS011;4024;52.172;5.378;2023-01-19T06:53:47;7.17;;;2.27;;
7957;SDS011;4024;52.172;5.378;2023-01-19T06:56:12;10.47;;;3.17;;
7957;SDS011;4024;52.172;5.378;2023-01-19T06:58:38;12.73;;;3.10;;
7957;SDS011;4024;52.172;5.378;2023-01-19T07:01:04;12.13;;;3.30;;
7957;SDS011;4024;52.172;5.378;2023-01-19T07:03:31;12.57;;;3.70;;
7957;SDS011;4024;52.172;5.378;2023-01-19T07:05:58;12.03;;;2.93;;
7957;SDS011;4024;52.172;5.378;2023-01-19T07:08:26;14.33;;;3.13;;
7957;SDS011;4024;52.172;5.378;2023-01-19T07:10:57;12.37;;;3.27;;
7957;SDS011;4024;52.172;5.378;2023-01-19T07:13:25;9.43;;;3.10;;
7957;SDS011;4024;52.172;5.378;2023-01-19T07:15:51;16.63;;;3.23;;
7957;SDS011;4024;52.172;5.378;2023-01-19T07:18:16;10.23;;;3.27;;
7957;SDS011;4024;52.172;5.378;2023-01-19T07:20:42;12.30;;;3.23;;
7957;SDS011;4024;52.172;5.378;2023-01-19T07:23:09;15.87;;;3.40;;
7957;SDS011;4024;52.172;5.378;2023-01-19T07:25:35;13.30;;;3.03;;
7957;SDS011;4024;52.172;5.378;2023-01-19T07:28:01;10.77;;;2.70;;
7957;SDS011;4024;52.172;5.378;2023-01-19T07:30:26;13.83;;;3.17;;
7957;SDS011;4024;52.172;5.378;2023-01-19T07:32:55;14.77;;;2.90;;
7957;SDS011;4024;52.172;5.378;2023-01-19T07:35:22;14.33;;;3.30;;
7957;SDS011;4024;52.172;5.378;2023-01-19T07:37:49;17.47;;;3.43;;
7957;SDS011;4024;52.172;5.378;2023-01-19T07:40:15;10.00;;;3.57;;
7957;SDS011;4024;52.172;5.378;2023-01-19T07:42:47;12.17;;;3.00;;
7957;SDS011;4024;52.172;5.378;2023-01-19T07:45:18;12.77;;;3.23;;
7957;SDS011;4024;52.172;5.378;2023-01-19T07:47:45;12.90;;;3.53;;
7957;SDS011;4024;52.172;5.378;2023-01-19T07:50:13;5.93;;;2.70;;
7957;SDS011;4024;52.172;5.378;2023-01-19T07:52:39;11.73;;;3.50;;
7957;SDS011;4024;52.172;5.378;2023-01-19T07:55:05;13.33;;;3.30;;
7957;SDS011;4024;52.172;5.378;2023-01-19T07:57:31;16.03;;;3.43;;
7957;SDS011;4024;52.172;5.378;2023-01-19T07:59:57;14.07;;;2.93;;
7957;SDS011;4024;52.172;5.378;2023-01-19T08:02:23;11.73;;;3.07;;
7957;SDS011;4024;52.172;5.378;2023-01-19T08:04:49;17.30;;;3.90;;
7957;SDS011;4024;52.172;5.378;2023-01-19T08:07:15;16.87;;;4.47;;
7957;SDS011;4024;52.172;5.378;2023-01-19T08:09:41;12.83;;;3.40;;
7957;SDS011;4024;52.172;5.378;2023-01-19T08:12:07;21.10;;;4.77;;
7957;SDS011;4024;52.172;5.378;2023-01-19T08:14:32;12.97;;;4.53;;
7957;SDS011;4024;52.172;5.378;2023-01-19T08:17:01;14.77;;;4.43;;
7957;SDS011;4024;52.172;5.378;2023-01-19T08:19:28;12.73;;;3.50;;
7957;SDS011;4024;52.172;5.378;2023-01-19T08:21:53;13.50;;;4.33;;
7957;SDS011;4024;52.172;5.378;2023-01-19T08:24:20;12.43;;;3.43;;
7957;SDS011;4024;52.172;5.378;2023-01-19T08:26:49;12.07;;;3.50;;
7957;SDS011;4024;52.172;5.378;2023-01-19T08:29:22;13.83;;;3.70;;
7957;SDS011;4024;52.172;5.378;2023-01-19T08:31:48;12.40;;;3.57;;
7957;SDS011;4024;52.172;5.378;2023-01-19T08:34:13;16.17;;;4.57;;
7957;SDS011;4024;52.172;5.378;2023-01-19T08:36:39;10.70;;;4.07;;
7957;SDS011;4024;52.172;5.378;2023-01-19T08:39:04;18.03;;;4.03;;
7957;SDS011;4024;52.172;5.378;2023-01-19T08:41:30;9.50;;;3.10;;
7957;SDS011;4024;52.172;5.378;2023-01-19T08:43:56;15.63;;;4.30;;
7957;SDS011;4024;52.172;5.378;2023-01-19T08:46:22;17.20;;;4.60;;
7957;SDS011;4024;52.172;5.378;2023-01-19T08:48:47;19.00;;;4.47;;
7957;SDS011;4024;52.172;5.378;2023-01-19T08:51:14;12.30;;;3.27;;
7957;SDS011;4024;52.172;5.378;2023-01-19T08:53:40;14.83;;;3.83;;
7957;SDS011;4024;52.172;5.378;2023-01-19T08:56:07;12.83;;;3.50;;
7957;SDS011;4024;52.172;5.378;2023-01-19T08:58:40;19.27;;;4.20;;
7957;SDS011;4024;52.172;5.378;2023-01-19T09:01:07;13.20;;;3.70;;
7957;SDS011;4024;52.172;5.378;2023-01-19T09:03:34;13.40;;;3.67;;
7957;SDS011;4024;52.172;5.378;2023-01-19T09:06:01;15.90;;;4.30;;
7957;SDS011;4024;52.172;5.378;2023-01-19T09:08:29;14.97;;;4.07;;
7957;SDS011;4024;52.172;5.378;2023-01-19T09:10:55;15.47;;;4.30;;
7957;SDS011;4024;52.172;5.378;2023-01-19T09:13:21;7.77;;;3.20;;
7957;SDS011;4024;52.172;5.378;2023-01-19T09:15:46;16.60;;;4.20;;
7957;SDS011;4024;52.172;5.378;2023-01-19T09:18:13;12.50;;;3.47;;
7957;SDS011;4024;52.172;5.378;2023-01-19T09:20:44;12.00;;;3.13;;
7957;SDS011;4024;52.172;5.378;2023-01-19T09:23:12;11.63;;;3.07;;
7957;SDS011;4024;52.172;5.378;2023-01-19T09:25:41;11.87;;;3.27;;
7957;SDS011;4024;52.172;5.378;2023-01-19T09:28:09;15.80;;;3.20;;
7957;SDS011;4024;52.172;5.378;2023-01-19T09:30:36;10.27;;;3.27;;
7957;SDS011;4024;52.172;5.378;2023-01-19T09:33:07;13.63;;;3.47;;
7957;SDS011;4024;52.172;5.378;2023-01-19T09:35:35;10.03;;;3.10;;
7957;SDS011;4024;52.172;5.378;2023-01-19T09:38:01;7.80;;;2.83;;
7957;SDS011;4024;52.172;5.378;2023-01-19T09:40:28;11.07;;;3.17;;
7957;SDS011;4024;52.172;5.378;2023-01-19T09:42:55;10.67;;;3.17;;
7957;SDS011;4024;52.172;5.378;2023-01-19T09:45:28;17.30;;;4.80;;
7957;SDS011;4024;52.172;5.378;2023-01-19T09:48:00;11.37;;;3.53;;
7957;SDS011;4024;52.172;5.378;2023-01-19T09:50:33;11.40;;;3.40;;
7957;SDS011;4024;52.172;5.378;2023-01-19T09:53:48;11.57;;;3.37;;
7957;SDS011;4024;52.172;5.378;2023-01-19T09:55:57;14.67;;;3.17;;
7957;SDS011;4024;52.172;5.378;2023-01-19T09:58:23;11.37;;;3.30;;
7957;SDS011;4024;52.172;5.378;2023-01-19T10:00:52;8.57;;;3.03;;
7957;SDS011;4024;52.172;5.378;2023-01-19T10:03:23;10.43;;;3.33;;
7957;SDS011;4024;52.172;5.378;2023-01-19T10:05:54;10.63;;;3.23;;
7957;SDS011;4024;52.172;5.378;2023-01-19T10:08:33;13.60;;;3.00;;
7957;SDS011;4024;52.172;5.378;2023-01-19T10:11:25;14.10;;;2.90;;
7957;SDS011;4024;52.172;5.378;2023-01-19T10:14:03;9.57;;;2.53;;
7957;SDS011;4024;52.172;5.378;2023-01-19T10:19:22;12.03;;;3.00;;
7957;SDS011;4024;52.172;5.378;2023-01-19T10:21:54;8.83;;;2.67;;
7957;SDS011;4024;52.172;5.378;2023-01-19T10:24:37;9.40;;;2.70;;
7957;SDS011;4024;52.172;5.378;2023-01-19T10:27:15;11.17;;;2.90;;
7957;SDS011;4024;52.172;5.378;2023-01-19T10:29:42;14.57;;;3.00;;
7957;SDS011;4024;52.172;5.378;2023-01-19T10:32:31;8.70;;;2.50;;
7957;SDS011;4024;52.172;5.378;2023-01-19T10:34:57;10.30;;;3.37;;
7957;SDS011;4024;52.172;5.378;2023-01-19T10:37:29;7.87;;;2.80;;
7957;SDS011;4024;52.172;5.378;2023-01-19T10:42:35;10.53;;;2.77;;
7957;SDS011;4024;52.172;5.378;2023-01-19T10:45:03;8.40;;;2.33;;
7957;SDS011;4024;52.172;5.378;2023-01-19T10:47:49;13.73;;;2.93;;
7957;SDS011;4024;52.172;5.378;2023-01-19T10:52:53;6.87;;;2.37;;
7957;SDS011;4024;52.172;5.378;2023-01-19T10:55:34;6.53;;;2.53;;
7957;SDS011;4024;52.172;5.378;2023-01-19T10:58:02;8.30;;;2.80;;
7957;SDS011;4024;52.172;5.378;2023-01-19T11:03:01;7.37;;;2.43;;
7957;SDS011;4024;52.172;5.378;2023-01-19T11:05:29;6.77;;;2.53;;
7957;SDS011;4024;52.172;5.378;2023-01-19T11:07:56;4.57;;;2.30;;
7957;SDS011;4024;52.172;5.378;2023-01-19T11:10:23;6.13;;;2.30;;
7957;SDS011;4024;52.172;5.378;2023-01-19T11:18:26;8.40;;;2.33;;
7957;SDS011;4024;52.172;5.378;2023-01-19T11:20:58;6.40;;;2.20;;
7957;SDS011;4024;52.172;5.378;2023-01-19T11:23:28;7.93;;;2.60;;
7957;SDS011;4024;52.172;5.378;2023-01-19T11:26:01;5.93;;;2.20;;
7957;SDS011;4024;52.172;5.378;2023-01-19T11:36:20;5.00;;;2.13;;
7957;SDS011;4024;52.172;5.378;2023-01-19T11:38:49;9.37;;;2.57;;
7957;SDS011;4024;52.172;5.378;2023-01-19T11:43:54;8.37;;;3.00;;
7957;SDS011;4024;52.172;5.378;2023-01-19T11:46:23;7.50;;;2.47;;
7957;SDS011;4024;52.172;5.378;2023-01-19T11:48:55;5.40;;;1.97;;
7957;SDS011;4024;52.172;5.378;2023-01-19T11:51:28;5.70;;;2.30;;
7957;SDS011;4024;52.172;5.378;2023-01-19T11:53:59;8.13;;;2.27;;
7957;SDS011;4024;52.172;5.378;2023-01-19T11:56:32;6.53;;;2.20;;
7957;SDS011;4024;52.172;5.378;2023-01-19T11:58:59;6.47;;;2.17;;
7957;SDS011;4024;52.172;5.378;2023-01-19T12:01:28;5.87;;;2.40;;
7957;SDS011;4024;52.172;5.378;2023-01-19T12:04:11;6.57;;;2.13;;
7957;SDS011;4024;52.172;5.378;2023-01-19T12:06:42;7.23;;;2.33;;
7957;SDS011;4024;52.172;5.378;2023-01-19T12:09:21;7.73;;;2.47;;
7957;SDS011;4024;52.172;5.378;2023-01-19T12:11:50;6.57;;;2.57;;
7957;SDS011;4024;52.172;5.378;2023-01-19T12:17:27;6.40;;;2.20;;
7957;SDS011;4024;52.172;5.378;2023-01-19T12:22:47;4.37;;;1.97;;
7957;SDS011;4024;52.172;5.378;2023-01-19T12:27:46;5.67;;;2.20;;
7957;SDS011;4024;52.172;5.378;2023-01-19T12:30:20;6.47;;;2.10;;
7957;SDS011;4024;52.172;5.378;2023-01-19T12:32:48;4.23;;;2.30;;
7957;SDS011;4024;52.172;5.378;2023-01-19T12:38:39;5.23;;;2.10;;
7957;SDS011;4024;52.172;5.378;2023-01-19T12:41:15;7.73;;;1.97;;
7957;SDS011;4024;52.172;5.378;2023-01-19T12:54:39;4.70;;;2.10;;
7957;SDS011;4024;52.172;5.378;2023-01-19T12:57:30;5.37;;;2.13;;
7957;SDS011;4024;52.172;5.378;2023-01-19T12:59:59;4.90;;;1.93;;
7957;SDS011;4024;52.172;5.378;2023-01-19T13:15:44;4.87;;;1.83;;
7957;SDS011;4024;52.172;5.378;2023-01-19T13:18:32;4.10;;;2.70;;
7957;SDS011;4024;52.172;5.378;2023-01-19T13:21:00;5.93;;;2.13;;
7957;SDS011;4024;52.172;5.378;2023-01-19T13:26:14;6.30;;;2.33;;
7957;SDS011;4024;52.172;5.378;2023-01-19T13:28:42;6.90;;;2.30;;
7957;SDS011;4024;52.172;5.378;2023-01-19T13:31:09;8.43;;;2.60;;
7957;SDS011;4024;52.172;5.378;2023-01-19T13:33:38;8.37;;;2.47;;
7957;SDS011;4024;52.172;5.378;2023-01-19T13:36:15;2.93;;;1.87;;
7957;SDS011;4024;52.172;5.378;2023-01-19T13:38:46;3.50;;;1.90;;
7957;SDS011;4024;52.172;5.378;2023-01-19T13:41:14;3.43;;;1.67;;
7957;SDS011;4024;52.172;5.378;2023-01-19T13:43:42;4.30;;;2.00;;
7957;SDS011;4024;52.172;5.378;2023-01-19T13:46:09;4.67;;;2.33;;
7957;SDS011;4024;52.172;5.378;2023-01-19T13:48:37;4.80;;;2.80;;
7957;SDS011;4024;52.172;5.378;2023-01-19T13:51:04;4.00;;;2.07;;
7957;SDS011;4024;52.172;5.378;2023-01-19T13:53:52;6.93;;;2.03;;
7957;SDS011;4024;52.172;5.378;2023-01-19T13:56:27;7.73;;;1.90;;
7957;SDS011;4024;52.172;5.378;2023-01-19T14:01:29;2.40;;;1.83;;
7957;SDS011;4024;52.172;5.378;2023-01-19T14:03:56;4.27;;;1.90;;
7957;SDS011;4024;52.172;5.378;2023-01-19T14:06:33;3.17;;;1.83;;
7957;SDS011;4024;52.172;5.378;2023-01-19T14:09:05;3.67;;;1.90;;
7957;SDS011;4024;52.172;5.378;2023-01-19T14:11:32;4.97;;;1.93;;
7957;SDS011;4024;52.172;5.378;2023-01-19T14:13:58;4.60;;;2.00;;
7957;SDS011;4024;52.172;5.378;2023-01-19T14:16:24;4.13;;;2.33;;
7957;SDS011;4024;52.172;5.378;2023-01-19T14:18:59;3.83;;;2.33;;
7957;SDS011;4024;52.172;5.378;2023-01-19T14:21:35;4.20;;;3.00;;
7957;SDS011;4024;52.172;5.378;2023-01-19T14:24:14;4.47;;;2.50;;
7957;SDS011;4024;52.172;5.378;2023-01-19T14:26:44;3.20;;;2.33;;
7957;SDS011;4024;52.172;5.378;2023-01-19T14:29:27;5.00;;;2.73;;
7957;SDS011;4024;52.172;5.378;2023-01-19T14:36:59;5.03;;;2.60;;
7957;SDS011;4024;52.172;5.378;2023-01-19T14:39:28;5.57;;;2.20;;
7957;SDS011;4024;52.172;5.378;2023-01-19T14:42:02;3.70;;;1.67;;
7957;SDS011;4024;52.172;5.378;2023-01-19T14:44:36;4.87;;;2.13;;
7957;SDS011;4024;52.172;5.378;2023-01-19T14:47:04;3.80;;;1.90;;
7957;SDS011;4024;52.172;5.378;2023-01-19T14:49:34;3.90;;;2.67;;
7957;SDS011;4024;52.172;5.378;2023-01-19T14:52:18;4.10;;;2.90;;
7957;SDS011;4024;52.172;5.378;2023-01-19T14:54:45;4.03;;;2.40;;
7957;SDS011;4024;52.172;5.378;2023-01-19T14:57:12;7.83;;;2.40;;
7957;SDS011;4024;52.172;5.378;2023-01-19T14:59:38;6.83;;;2.60;;
7957;SDS011;4024;52.172;5.378;2023-01-19T15:02:05;4.90;;;2.00;;
7957;SDS011;4024;52.172;5.378;2023-01-19T15:04:31;4.60;;;2.17;;
7957;SDS011;4024;52.172;5.378;2023-01-19T15:06:56;7.37;;;2.27;;
7957;SDS011;4024;52.172;5.378;2023-01-19T15:09:22;7.90;;;2.40;;
7957;SDS011;4024;52.172;5.378;2023-01-19T15:11:48;3.53;;;2.33;;
7957;SDS011;4024;52.172;5.378;2023-01-19T15:14:16;6.60;;;2.10;;
7957;SDS011;4024;52.172;5.378;2023-01-19T15:16:44;5.43;;;2.70;;
7957;SDS011;4024;52.172;5.378;2023-01-19T15:19:11;5.97;;;3.63;;
7957;SDS011;4024;52.172;5.378;2023-01-19T15:21:38;4.80;;;2.20;;
7957;SDS011;4024;52.172;5.378;2023-01-19T15:24:07;3.20;;;2.73;;
7957;SDS011;4024;52.172;5.378;2023-01-19T15:26:34;7.70;;;3.03;;
7957;SDS011;4024;52.172;5.378;2023-01-19T15:29:00;4.43;;;2.47;;
7957;SDS011;4024;52.172;5.378;2023-01-19T15:31:26;6.50;;;2.50;;
7957;SDS011;4024;52.172;5.378;2023-01-19T15:33:52;4.27;;;2.40;;
7957;SDS011;4024;52.172;5.378;2023-01-19T15:36:19;5.17;;;2.23;;
7957;SDS011;4024;52.172;5.378;2023-01-19T15:38:46;8.77;;;2.67;;
7957;SDS011;4024;52.172;5.378;2023-01-19T15:41:16;4.63;;;2.80;;
7957;SDS011;4024;52.172;5.378;2023-01-19T15:43:47;7.57;;;3.00;;
7957;SDS011;4024;52.172;5.378;2023-01-19T15:46:13;4.87;;;2.40;;
7957;SDS011;4024;52.172;5.378;2023-01-19T15:48:41;5.93;;;2.40;;
7957;SDS011;4024;52.172;5.378;2023-01-19T15:51:10;5.67;;;2.30;;
7957;SDS011;4024;52.172;5.378;2023-01-19T15:53:38;3.90;;;2.27;;
7957;SDS011;4024;52.172;5.378;2023-01-19T15:56:04;3.67;;;2.27;;
7957;SDS011;4024;52.172;5.378;2023-01-19T15:58:30;3.97;;;2.07;;
7957;SDS011;4024;52.172;5.378;2023-01-19T16:00:56;7.27;;;2.40;;
7957;SDS011;4024;52.172;5.378;2023-01-19T16:03:23;7.20;;;2.20;;
7957;SDS011;4024;52.172;5.378;2023-01-19T16:05:51;2.60;;;1.80;;
7957;SDS011;4024;52.172;5.378;2023-01-19T16:08:16;3.60;;;2.00;;
7957;SDS011;4024;52.172;5.378;2023-01-19T16:10:42;5.20;;;2.30;;
7957;SDS011;4024;52.172;5.378;2023-01-19T16:13:09;6.10;;;2.00;;
7957;SDS011;4024;52.172;5.378;2023-01-19T16:15:35;7.63;;;2.70;;
7957;SDS011;4024;52.172;5.378;2023-01-19T16:18:06;4.80;;;2.37;;
7957;SDS011;4024;52.172;5.378;2023-01-19T16:20:31;4.63;;;2.30;;
7957;SDS011;4024;52.172;5.378;2023-01-19T16:22:57;4.80;;;2.77;;
7957;SDS011;4024;52.172;5.378;2023-01-19T16:25:23;5.20;;;2.20;;
7957;SDS011;4024;52.172;5.378;2023-01-19T16:27:49;6.67;;;2.40;;
7957;SDS011;4024;52.172;5.378;2023-01-19T16:30:15;5.13;;;2.57;;
7957;SDS011;4024;52.172;5.378;2023-01-19T16:32:43;6.87;;;2.83;;
7957;SDS011;4024;52.172;5.378;2023-01-19T16:35:10;8.20;;;3.00;;
7957;SDS011;4024;52.172;5.378;2023-01-19T16:37:36;5.80;;;3.03;;
7957;SDS011;4024;52.172;5.378;2023-01-19T16:40:02;5.43;;;3.10;;
7957;SDS011;4024;52.172;5.378;2023-01-19T16:42:28;7.10;;;3.30;;
7957;SDS011;4024;52.172;5.378;2023-01-19T16:44:54;8.47;;;2.90;;
7957;SDS011;4024;52.172;5.378;2023-01-19T16:47:20;6.53;;;2.63;;
7957;SDS011;4024;52.172;5.378;2023-01-19T16:49:45;5.20;;;2.37;;
7957;SDS011;4024;52.172;5.378;2023-01-19T16:52:11;5.03;;;2.90;;
7957;SDS011;4024;52.172;5.378;2023-01-19T16:54:37;5.17;;;2.53;;